sensor_id;sensor_type;location;lat;lon;timestamp;P1;durP1;ratioP1;P2;durP2;ratioP2
21101;SDS011;10709;49.006;12.100;2024-03-08T00:00:59;27.23;;;17.03;;
21101;SDS011;10709;49.006;12.100;2024-03-08T00:03:26;31.17;;;19.00;;
21101;SDS011;10709;49.006;12.100;2024-03-08T00:05:53;30.87;;;19.50;;
21101;SDS011;10709;49.006;12.100;2024-03-08T00:08:19;30.40;;;18.93;;
21101;SDS011;10709;49.006;12.100;2024-03-08T00:10:46;28.60;;;18.03;;
21101;SDS011;10709;49.006;12.100;2024-03-08T00:13:15;31.57;;;19.43;;
21101;SDS011;10709;49.006;12.100;2024-03-08T00:15:43;28.17;;;18.03;;
21101;SDS011;10709;49.006;12.100;2024-03-08T00:18:09;29.80;;;18.77;;
21101;SDS011;10709;49.006;12.100;2024-03-08T00:20:38;30.17;;;18.87;;
21101;SDS011;10709;49.006;12.100;2024-03-08T00:23:04;28.50;;;17.47;;
21101;SDS011;10709;49.006;12.100;2024-03-08T00:25:31;26.87;;;16.93;;
21101;SDS011;10709;49.006;12.100;2024-03-08T00:27:57;30.90;;;17.80;;
21101;SDS011;10709;49.006;12.100;2024-03-08T00:30:26;31.13;;;18.47;;
21101;SDS011;10709;49.006;12.100;2024-03-08T00:32:52;30.20;;;18.80;;
21101;SDS011;10709;49.006;12.100;2024-03-08T00:35:19;29.20;;;18.07;;
21101;SDS011;10709;49.006;12.100;2024-03-08T00:37:45;28.37;;;17.83;;
21101;SDS011;10709;49.006;12.100;2024-03-08T00:40:15;28.67;;;18.20;;
21101;SDS011;10709;49.006;12.100;2024-03-08T00:42:43;28.03;;;17.53;;
21101;SDS011;10709;49.006;12.100;2024-03-08T00:45:10;30.10;;;18.00;;
21101;SDS011;10709;49.006;12.100;2024-03-08T00:47:38;32.23;;;18.90;;
21101;SDS011;10709;49.006;12.100;2024-03-08T00:50:05;29.33;;;17.70;;
21101;SDS011;10709;49.006;12.100;2024-03-08T00:52:32;28.90;;;18.43;;
21101;SDS011;10709;49.006;12.100;2024-03-08T00:55:01;32.60;;;18.60;;
21101;SDS011;10709;49.006;12.100;2024-03-08T00:57:28;31.13;;;18.63;;
21101;SDS011;10709;49.006;12.100;2024-03-08T00:59:56;30.40;;;18.57;;
21101;SDS011;10709;49.006;12.100;2024-03-08T01:02:23;26.53;;;17.33;;
21101;SDS011;10709;49.006;12.100;2024-03-08T01:04:58;33.47;;;18.90;;
21101;SDS011;10709;49.006;12.100;2024-03-08T01:07:25;26.90;;;17.30;;
21101;SDS011;10709;49.006;12.100;2024-03-08T01:09:51;34.70;;;19.40;;
21101;SDS011;10709;49.006;12.100;2024-03-08T01:12:18;27.17;;;17.40;;
21101;SDS011;10709;49.006;12.100;2024-03-08T01:14:45;27.70;;;17.57;;
21101;SDS011;10709;49.006;12.100;2024-03-08T01:17:12;31.17;;;18.30;;
21101;SDS011;10709;49.006;12.100;2024-03-08T01:19:39;29.90;;;18.80;;
21101;SDS011;10709;49.006;12.100;2024-03-08T01:22:05;34.50;;;20.43;;
21101;SDS011;10709;49.006;12.100;2024-03-08T01:24:32;30.23;;;18.73;;
21101;SDS011;10709;49.006;12.100;2024-03-08T01:26:58;29.57;;;18.17;;
21101;SDS011;10709;49.006;12.100;2024-03-08T01:29:26;28.23;;;18.00;;
21101;SDS011;10709;49.006;12.100;2024-03-08T01:31:52;27.43;;;16.93;;
21101;SDS011;10709;49.006;12.100;2024-03-08T01:34:19;32.60;;;20.40;;
21101;SDS011;10709;49.006;12.100;2024-03-08T01:36:46;32.93;;;20.63;;
21101;SDS011;10709;49.006;12.100;2024-03-08T01:39:13;29.93;;;18.73;;
21101;SDS011;10709;49.006;12.100;2024-03-08T01:41:39;33.37;;;19.23;;
21101;SDS011;10709;49.006;12.100;2024-03-08T01:44:06;31.33;;;18.80;;
21101;SDS011;10709;49.006;12.100;2024-03-08T01:46:36;28.60;;;18.00;;
21101;SDS011;10709;49.006;12.100;2024-03-08T01:49:02;30.07;;;18.97;;
21101;SDS011;10709;49.006;12.100;2024-03-08T01:51:30;28.50;;;17.43;;
21101;SDS011;10709;49.006;12.100;2024-03-08T01:53:57;27.77;;;18.17;;
21101;SDS011;10709;49.006;12.100;2024-03-08T01:56:24;27.17;;;16.90;;
21101;SDS011;10709;49.006;12.100;2024-03-08T01:58:54;29.57;;;18.10;;
21101;SDS011;10709;49.006;12.100;2024-03-08T02:01:21;30.60;;;18.07;;
21101;SDS011;10709;49.006;12.100;2024-03-08T02:03:48;27.20;;;17.77;;
21101;SDS011;10709;49.006;12.100;2024-03-08T02:06:15;28.90;;;18.10;;
21101;SDS011;10709;49.006;12.100;2024-03-08T02:08:43;28.13;;;17.63;;
21101;SDS011;10709;49.006;12.100;2024-03-08T02:11:11;27.53;;;17.57;;
21101;SDS011;10709;49.006;12.100;2024-03-08T02:13:39;28.13;;;18.03;;
21101;SDS011;10709;49.006;12.100;2024-03-08T02:16:06;26.57;;;17.00;;
21101;SDS011;10709;49.006;12.100;2024-03-08T02:18:34;32.50;;;18.70;;
21101;SDS011;10709;49.006;12.100;2024-03-08T02:21:02;27.33;;;16.77;;
21101;SDS011;10709;49.006;12.100;2024-03-08T02:23:30;28.77;;;17.70;;
21101;SDS011;10709;49.006;12.100;2024-03-08T02:25:59;27.20;;;17.27;;
21101;SDS011;10709;49.006;12.100;2024-03-08T02:28:26;28.97;;;17.70;;
21101;SDS011;10709;49.006;12.100;2024-03-08T02:30:52;30.40;;;18.67;;
21101;SDS011;10709;49.006;12.100;2024-03-08T02:33:25;33.20;;;19.60;;
21101;SDS011;10709;49.006;12.100;2024-03-08T02:35:54;29.70;;;18.30;;
21101;SDS011;10709;49.006;12.100;2024-03-08T02:38:24;30.93;;;18.60;;
21101;SDS011;10709;49.006;12.100;2024-03-08T02:40:52;30.17;;;18.67;;
21101;SDS011;10709;49.006;12.100;2024-03-08T02:43:19;29.57;;;18.10;;
21101;SDS011;10709;49.006;12.100;2024-03-08T02:45:53;31.27;;;19.33;;
21101;SDS011;10709;49.006;12.100;2024-03-08T02:48:20;31.30;;;18.57;;
21101;SDS011;10709;49.006;12.100;2024-03-08T02:50:48;28.53;;;17.63;;
21101;SDS011;10709;49.006;12.100;2024-03-08T02:53:18;30.57;;;17.30;;
21101;SDS011;10709;49.006;12.100;2024-03-08T02:55:45;32.40;;;20.23;;
21101;SDS011;10709;49.006;12.100;2024-03-08T02:58:13;29.90;;;18.37;;
21101;SDS011;10709;49.006;12.100;2024-03-08T03:00:41;28.43;;;18.57;;
21101;SDS011;10709;49.006;12.100;2024-03-08T03:03:13;29.30;;;18.27;;
21101;SDS011;10709;49.006;12.100;2024-03-08T03:05:39;30.70;;;18.53;;
21101;SDS011;10709;49.006;12.100;2024-03-08T03:08:13;30.07;;;18.30;;
21101;SDS011;10709;49.006;12.100;2024-03-08T03:10:41;26.87;;;17.63;;
21101;SDS011;10709;49.006;12.100;2024-03-08T03:13:08;27.03;;;17.27;;
21101;SDS011;10709;49.006;12.100;2024-03-08T03:15:35;29.37;;;17.97;;
21101;SDS011;10709;49.006;12.100;2024-03-08T03:18:03;28.27;;;18.17;;
21101;SDS011;10709;49.006;12.100;2024-03-08T03:20:30;28.57;;;18.10;;
21101;SDS011;10709;49.006;12.100;2024-03-08T03:22:59;32.47;;;18.37;;
21101;SDS011;10709;49.006;12.100;2024-03-08T03:25:29;29.70;;;17.50;;
21101;SDS011;10709;49.006;12.100;2024-03-08T03:28:03;29.27;;;17.50;;
21101;SDS011;10709;49.006;12.100;2024-03-08T03:30:31;27.00;;;17.23;;
21101;SDS011;10709;49.006;12.100;2024-03-08T03:33:00;30.30;;;18.50;;
21101;SDS011;10709;49.006;12.100;2024-03-08T03:35:28;29.53;;;18.13;;
21101;SDS011;10709;49.006;12.100;2024-03-08T03:37:58;28.73;;;18.00;;
21101;SDS011;10709;49.006;12.100;2024-03-08T03:40:29;28.87;;;17.77;;
21101;SDS011;10709;49.006;12.100;2024-03-08T03:42:55;29.37;;;18.53;;
21101;SDS011;10709;49.006;12.100;2024-03-08T03:45:23;28.47;;;18.07;;
21101;SDS011;10709;49.006;12.100;2024-03-08T03:47:50;28.53;;;17.37;;
21101;SDS011;10709;49.006;12.100;2024-03-08T03:50:20;28.73;;;17.57;;
21101;SDS011;10709;49.006;12.100;2024-03-08T03:52:48;27.80;;;17.70;;
21101;SDS011;10709;49.006;12.100;2024-03-08T03:55:15;31.83;;;19.40;;
21101;SDS011;10709;49.006;12.100;2024-03-08T03:57:41;30.10;;;18.93;;
21101;SDS011;10709;49.006;12.100;2024-03-08T04:00:09;29.23;;;18.07;;
21101;SDS011;10709;49.006;12.100;2024-03-08T04:02:37;30.70;;;18.57;;
21101;SDS011;10709;49.006;12.100;2024-03-08T04:05:08;26.10;;;17.27;;
21101;SDS011;10709;49.006;12.100;2024-03-08T04:07:36;27.77;;;18.07;;
21101;SDS011;10709;49.006;12.100;2024-03-08T04:10:03;28.50;;;17.97;;
21101;SDS011;10709;49.006;12.100;2024-03-08T04:12:35;29.83;;;18.53;;
21101;SDS011;10709;49.006;12.100;2024-03-08T04:15:02;29.67;;;18.50;;
21101;SDS011;10709;49.006;12.100;2024-03-08T04:17:30;30.23;;;18.40;;
21101;SDS011;10709;49.006;12.100;2024-03-08T04:19:56;29.37;;;18.83;;
21101;SDS011;10709;49.006;12.100;2024-03-08T04:22:23;27.27;;;17.60;;
21101;SDS011;10709;49.006;12.100;2024-03-08T04:24:49;30.60;;;18.73;;
21101;SDS011;10709;49.006;12.100;2024-03-08T04:27:17;27.97;;;17.97;;
21101;SDS011;10709;49.006;12.100;2024-03-08T04:29:43;28.47;;;18.10;;
21101;SDS011;10709;49.006;12.100;2024-03-08T04:32:10;30.97;;;18.57;;
21101;SDS011;10709;49.006;12.100;2024-03-08T04:34:36;27.97;;;17.60;;
21101;SDS011;10709;49.006;12.100;2024-03-08T04:37:03;30.20;;;18.63;;
21101;SDS011;10709;49.006;12.100;2024-03-08T04:39:31;29.37;;;18.73;;
21101;SDS011;10709;49.006;12.100;2024-03-08T04:41:59;30.57;;;18.23;;
21101;SDS011;10709;49.006;12.100;2024-03-08T04:44:32;27.47;;;17.33;;
21101;SDS011;10709;49.006;12.100;2024-03-08T04:47:00;29.03;;;18.00;;
21101;SDS011;10709;49.006;12.100;2024-03-08T04:49:26;30.57;;;18.53;;
21101;SDS011;10709;49.006;12.100;2024-03-08T04:51:54;28.80;;;18.70;;
21101;SDS011;10709;49.006;12.100;2024-03-08T04:54:21;29.50;;;18.70;;
21101;SDS011;10709;49.006;12.100;2024-03-08T04:56:47;29.27;;;18.47;;
21101;SDS011;10709;49.006;12.100;2024-03-08T04:59:14;33.23;;;19.40;;
21101;SDS011;10709;49.006;12.100;2024-03-08T05:01:41;29.67;;;18.43;;
21101;SDS011;10709;49.006;12.100;2024-03-08T05:04:07;35.50;;;20.07;;
21101;SDS011;10709;49.006;12.100;2024-03-08T05:06:35;32.63;;;19.23;;
21101;SDS011;10709;49.006;12.100;2024-03-08T05:09:02;30.20;;;18.97;;
21101;SDS011;10709;49.006;12.100;2024-03-08T05:11:41;31.83;;;19.70;;
21101;SDS011;10709;49.006;12.100;2024-03-08T05:14:11;29.50;;;18.77;;
21101;SDS011;10709;49.006;12.100;2024-03-08T05:16:43;29.70;;;18.37;;
21101;SDS011;10709;49.006;12.100;2024-03-08T05:19:15;29.77;;;19.07;;
21101;SDS011;10709;49.006;12.100;2024-03-08T05:21:46;29.53;;;19.37;;
21101;SDS011;10709;49.006;12.100;2024-03-08T05:24:15;32.37;;;19.10;;
21101;SDS011;10709;49.006;12.100;2024-03-08T05:26:45;33.23;;;20.70;;
21101;SDS011;10709;49.006;12.100;2024-03-08T05:29:13;34.13;;;19.73;;
21101;SDS011;10709;49.006;12.100;2024-03-08T05:34:15;30.90;;;17.93;;
21101;SDS011;10709;49.006;12.100;2024-03-08T05:36:43;25.97;;;17.27;;
21101;SDS011;10709;49.006;12.100;2024-03-08T05:39:13;34.17;;;19.97;;
21101;SDS011;10709;49.006;12.100;2024-03-08T05:41:40;27.50;;;18.13;;
21101;SDS011;10709;49.006;12.100;2024-03-08T05:44:07;28.53;;;17.97;;
21101;SDS011;10709;49.006;12.100;2024-03-08T05:46:34;28.37;;;18.37;;
21101;SDS011;10709;49.006;12.100;2024-03-08T05:49:04;29.33;;;18.70;;
21101;SDS011;10709;49.006;12.100;2024-03-08T05:51:32;30.47;;;19.03;;
21101;SDS011;10709;49.006;12.100;2024-03-08T05:54:06;28.00;;;17.30;;
21101;SDS011;10709;49.006;12.100;2024-03-08T05:56:36;28.90;;;18.70;;
21101;SDS011;10709;49.006;12.100;2024-03-08T05:59:04;30.07;;;18.70;;
21101;SDS011;10709;49.006;12.100;2024-03-08T06:01:30;33.20;;;20.30;;
21101;SDS011;10709;49.006;12.100;2024-03-08T06:04:02;29.13;;;17.73;;
21101;SDS011;10709;49.006;12.100;2024-03-08T06:06:29;29.30;;;18.53;;
21101;SDS011;10709;49.006;12.100;2024-03-08T06:08:56;27.37;;;17.67;;
21101;SDS011;10709;49.006;12.100;2024-03-08T06:11:23;30.57;;;19.13;;
21101;SDS011;10709;49.006;12.100;2024-03-08T06:13:49;33.07;;;19.07;;
21101;SDS011;10709;49.006;12.100;2024-03-08T06:16:16;31.03;;;19.77;;
21101;SDS011;10709;49.006;12.100;2024-03-08T06:18:42;29.77;;;18.20;;
21101;SDS011;10709;49.006;12.100;2024-03-08T06:21:10;29.97;;;18.83;;
21101;SDS011;10709;49.006;12.100;2024-03-08T06:23:39;26.80;;;17.50;;
21101;SDS011;10709;49.006;12.100;2024-03-08T06:26:05;26.77;;;17.83;;
21101;SDS011;10709;49.006;12.100;2024-03-08T06:28:33;31.33;;;18.60;;
21101;SDS011;10709;49.006;12.100;2024-03-08T06:31:01;31.33;;;18.93;;
21101;SDS011;10709;49.006;12.100;2024-03-08T06:33:28;32.27;;;20.87;;
21101;SDS011;10709;49.006;12.100;2024-03-08T06:35:59;32.37;;;19.90;;
21101;SDS011;10709;49.006;12.100;2024-03-08T06:38:26;31.07;;;19.23;;
21101;SDS011;10709;49.006;12.100;2024-03-08T06:40:55;31.60;;;20.37;;
21101;SDS011;10709;49.006;12.100;2024-03-08T06:43:21;28.30;;;18.60;;
21101;SDS011;10709;49.006;12.100;2024-03-08T06:45:48;30.30;;;19.33;;
21101;SDS011;10709;49.006;12.100;2024-03-08T06:48:15;31.50;;;19.97;;
21101;SDS011;10709;49.006;12.100;2024-03-08T06:50:44;35.37;;;20.93;;
21101;SDS011;10709;49.006;12.100;2024-03-08T06:53:11;31.90;;;19.47;;
21101;SDS011;10709;49.006;12.100;2024-03-08T06:55:38;40.17;;;22.60;;
21101;SDS011;10709;49.006;12.100;2024-03-08T06:58:05;30.57;;;19.40;;
21101;SDS011;10709;49.006;12.100;2024-03-08T07:00:33;38.47;;;21.07;;
21101;SDS011;10709;49.006;12.100;2024-03-08T07:02:59;32.77;;;19.80;;
21101;SDS011;10709;49.006;12.100;2024-03-08T07:05:29;33.50;;;20.47;;
21101;SDS011;10709;49.006;12.100;2024-03-08T07:07:57;30.33;;;19.07;;
21101;SDS011;10709;49.006;12.100;2024-03-08T07:10:24;30.30;;;19.27;;
21101;SDS011;10709;49.006;12.100;2024-03-08T07:12:51;38.17;;;21.43;;
21101;SDS011;10709;49.006;12.100;2024-03-08T07:15:19;36.97;;;22.07;;
21101;SDS011;10709;49.006;12.100;2024-03-08T07:17:47;36.43;;;21.93;;
21101;SDS011;10709;49.006;12.100;2024-03-08T07:20:14;33.50;;;21.70;;
21101;SDS011;10709;49.006;12.100;2024-03-08T07:22:42;33.43;;;21.40;;
21101;SDS011;10709;49.006;12.100;2024-03-08T07:25:13;33.93;;;20.90;;
21101;SDS011;10709;49.006;12.100;2024-03-08T07:27:49;33.77;;;20.73;;
21101;SDS011;10709;49.006;12.100;2024-03-08T07:30:15;33.93;;;20.03;;
21101;SDS011;10709;49.006;12.100;2024-03-08T07:33:01;34.57;;;19.73;;
21101;SDS011;10709;49.006;12.100;2024-03-08T07:35:29;34.93;;;20.20;;
21101;SDS011;10709;49.006;12.100;2024-03-08T07:37:56;34.03;;;20.53;;
21101;SDS011;10709;49.006;12.100;2024-03-08T07:40:22;32.97;;;19.93;;
21101;SDS011;10709;49.006;12.100;2024-03-08T07:42:49;31.90;;;19.10;;
21101;SDS011;10709;49.006;12.100;2024-03-08T07:45:16;27.53;;;17.13;;
21101;SDS011;10709;49.006;12.100;2024-03-08T07:47:43;31.40;;;18.97;;
21101;SDS011;10709;49.006;12.100;2024-03-08T07:50:12;33.23;;;20.03;;
21101;SDS011;10709;49.006;12.100;2024-03-08T07:52:42;31.63;;;19.97;;
21101;SDS011;10709;49.006;12.100;2024-03-08T07:55:12;31.43;;;20.10;;
21101;SDS011;10709;49.006;12.100;2024-03-08T07:57:39;33.17;;;18.87;;
21101;SDS011;10709;49.006;12.100;2024-03-08T08:00:06;35.07;;;19.13;;
21101;SDS011;10709;49.006;12.100;2024-03-08T08:02:34;30.30;;;17.63;;
21101;SDS011;10709;49.006;12.100;2024-03-08T08:05:05;30.43;;;16.37;;
21101;SDS011;10709;49.006;12.100;2024-03-08T08:07:32;28.10;;;17.50;;
21101;SDS011;10709;49.006;12.100;2024-03-08T08:09:59;29.10;;;17.70;;
21101;SDS011;10709;49.006;12.100;2024-03-08T08:12:26;31.40;;;17.70;;
21101;SDS011;10709;49.006;12.100;2024-03-08T08:14:54;28.73;;;17.10;;
21101;SDS011;10709;49.006;12.100;2024-03-08T08:17:23;32.30;;;17.53;;
21101;SDS011;10709;49.006;12.100;2024-03-08T08:19:49;27.00;;;16.70;;
21101;SDS011;10709;49.006;12.100;2024-03-08T08:22:18;27.40;;;17.03;;
21101;SDS011;10709;49.006;12.100;2024-03-08T08:24:45;29.87;;;17.47;;
21101;SDS011;10709;49.006;12.100;2024-03-08T08:27:12;26.37;;;16.13;;
21101;SDS011;10709;49.006;12.100;2024-03-08T08:29:38;33.57;;;16.07;;
21101;SDS011;10709;49.006;12.100;2024-03-08T08:32:06;27.30;;;15.97;;
21101;SDS011;10709;49.006;12.100;2024-03-08T08:34:32;28.13;;;16.27;;
21101;SDS011;10709;49.006;12.100;2024-03-08T08:36:59;28.57;;;15.57;;
21101;SDS011;10709;49.006;12.100;2024-03-08T08:39:26;27.83;;;15.97;;
21101;SDS011;10709;49.006;12.100;2024-03-08T08:41:56;26.63;;;15.30;;
21101;SDS011;10709;49.006;12.100;2024-03-08T08:44:22;28.03;;;15.93;;
21101;SDS011;10709;49.006;12.100;2024-03-08T08:46:50;27.97;;;16.40;;
21101;SDS011;10709;49.006;12.100;2024-03-08T08:49:22;26.50;;;15.63;;
21101;SDS011;10709;49.006;12.100;2024-03-08T08:51:50;27.27;;;16.23;;
21101;SDS011;10709;49.006;12.100;2024-03-08T08:54:18;26.80;;;15.43;;
21101;SDS011;10709;49.006;12.100;2024-03-08T08:56:45;25.93;;;15.37;;
21101;SDS011;10709;49.006;12.100;2024-03-08T08:59:11;26.10;;;15.43;;
21101;SDS011;10709;49.006;12.100;2024-03-08T09:01:40;29.47;;;16.07;;
21101;SDS011;10709;49.006;12.100;2024-03-08T09:04:07;26.97;;;16.13;;
21101;SDS011;10709;49.006;12.100;2024-03-08T09:06:34;27.87;;;16.20;;
21101;SDS011;10709;49.006;12.100;2024-03-08T09:09:02;26.90;;;15.73;;
21101;SDS011;10709;49.006;12.100;2024-03-08T09:11:32;27.63;;;16.07;;
21101;SDS011;10709;49.006;12.100;2024-03-08T09:13:59;28.07;;;15.87;;
21101;SDS011;10709;49.006;12.100;2024-03-08T09:16:25;25.80;;;15.63;;
21101;SDS011;10709;49.006;12.100;2024-03-08T09:18:52;27.10;;;15.67;;
21101;SDS011;10709;49.006;12.100;2024-03-08T09:21:19;26.37;;;15.67;;
21101;SDS011;10709;49.006;12.100;2024-03-08T09:23:48;25.73;;;14.93;;
21101;SDS011;10709;49.006;12.100;2024-03-08T09:26:15;26.77;;;16.00;;
21101;SDS011;10709;49.006;12.100;2024-03-08T09:28:53;27.93;;;15.47;;
21101;SDS011;10709;49.006;12.100;2024-03-08T09:31:23;26.93;;;15.27;;
21101;SDS011;10709;49.006;12.100;2024-03-08T09:33:51;25.23;;;15.30;;
21101;SDS011;10709;49.006;12.100;2024-03-08T09:36:20;25.67;;;15.50;;
21101;SDS011;10709;49.006;12.100;2024-03-08T09:38:46;25.03;;;15.30;;
21101;SDS011;10709;49.006;12.100;2024-03-08T09:41:15;24.53;;;14.40;;
21101;SDS011;10709;49.006;12.100;2024-03-08T09:43:41;26.43;;;14.67;;
21101;SDS011;10709;49.006;12.100;2024-03-08T09:46:09;25.90;;;16.53;;
21101;SDS011;10709;49.006;12.100;2024-03-08T09:48:38;26.63;;;15.60;;
21101;SDS011;10709;49.006;12.100;2024-03-08T09:51:08;24.37;;;15.00;;
21101;SDS011;10709;49.006;12.100;2024-03-08T09:53:35;26.60;;;15.47;;
21101;SDS011;10709;49.006;12.100;2024-03-08T09:56:04;26.17;;;15.23;;
21101;SDS011;10709;49.006;12.100;2024-03-08T09:58:31;23.20;;;14.80;;
21101;SDS011;10709;49.006;12.100;2024-03-08T10:01:00;24.77;;;15.40;;
21101;SDS011;10709;49.006;12.100;2024-03-08T10:03:31;22.37;;;14.43;;
21101;SDS011;10709;49.006;12.100;2024-03-08T10:05:59;22.30;;;13.97;;
21101;SDS011;10709;49.006;12.100;2024-03-08T10:08:27;22.37;;;14.50;;
21101;SDS011;10709;49.006;12.100;2024-03-08T10:10:57;23.03;;;14.50;;
21101;SDS011;10709;49.006;12.100;2024-03-08T10:13:27;23.43;;;14.27;;
21101;SDS011;10709;49.006;12.100;2024-03-08T10:15:55;21.93;;;14.43;;
21101;SDS011;10709;49.006;12.100;2024-03-08T10:18:21;22.03;;;14.33;;
21101;SDS011;10709;49.006;12.100;2024-03-08T10:21:02;23.03;;;14.87;;
21101;SDS011;10709;49.006;12.100;2024-03-08T10:23:30;22.27;;;13.67;;
21101;SDS011;10709;49.006;12.100;2024-03-08T10:25:59;22.23;;;14.03;;
21101;SDS011;10709;49.006;12.100;2024-03-08T10:28:36;20.73;;;13.70;;
21101;SDS011;10709;49.006;12.100;2024-03-08T10:31:04;22.00;;;13.57;;
21101;SDS011;10709;49.006;12.100;2024-03-08T10:33:32;22.47;;;14.13;;
21101;SDS011;10709;49.006;12.100;2024-03-08T10:35:59;24.57;;;14.90;;
21101;SDS011;10709;49.006;12.100;2024-03-08T10:38:27;21.60;;;14.07;;
21101;SDS011;10709;49.006;12.100;2024-03-08T10:40:59;23.73;;;14.50;;
21101;SDS011;10709;49.006;12.100;2024-03-08T10:43:28;22.43;;;14.17;;
21101;SDS011;10709;49.006;12.100;2024-03-08T10:46:14;21.30;;;14.33;;
21101;SDS011;10709;49.006;12.100;2024-03-08T10:48:52;21.33;;;13.70;;
21101;SDS011;10709;49.006;12.100;2024-03-08T10:51:25;24.27;;;15.27;;
21101;SDS011;10709;49.006;12.100;2024-03-08T10:53:52;24.07;;;14.70;;
21101;SDS011;10709;49.006;12.100;2024-03-08T10:56:21;21.53;;;14.27;;
21101;SDS011;10709;49.006;12.100;2024-03-08T10:58:49;21.90;;;14.27;;
21101;SDS011;10709;49.006;12.100;2024-03-08T11:01:16;22.00;;;13.50;;
21101;SDS011;10709;49.006;12.100;2024-03-08T11:06:53;22.03;;;13.53;;
21101;SDS011;10709;49.006;12.100;2024-03-08T11:09:03;19.70;;;13.33;;
21101;SDS011;10709;49.006;12.100;2024-03-08T11:12:17;21.50;;;13.73;;
21101;SDS011;10709;49.006;12.100;2024-03-08T11:14:59;18.73;;;13.10;;
21101;SDS011;10709;49.006;12.100;2024-03-08T11:20:09;21.83;;;13.90;;
21101;SDS011;10709;49.006;12.100;2024-03-08T11:22:42;18.47;;;12.40;;
21101;SDS011;10709;49.006;12.100;2024-03-08T11:28:17;19.60;;;12.97;;
21101;SDS011;10709;49.006;12.100;2024-03-08T11:33:29;20.07;;;12.93;;
21101;SDS011;10709;49.006;12.100;2024-03-08T11:38:40;19.40;;;12.30;;
21101;SDS011;10709;49.006;12.100;2024-03-08T11:41:08;18.37;;;12.47;;
21101;SDS011;10709;49.006;12.100;2024-03-08T11:43:35;16.90;;;11.30;;
21101;SDS011;10709;49.006;12.100;2024-03-08T11:46:08;16.00;;;11.03;;
21101;SDS011;10709;49.006;12.100;2024-03-08T11:48:35;17.70;;;11.37;;
21101;SDS011;10709;49.006;12.100;2024-03-08T11:51:04;16.57;;;10.77;;
21101;SDS011;10709;49.006;12.100;2024-03-08T11:53:31;16.23;;;11.40;;
21101;SDS011;10709;49.006;12.100;2024-03-08T11:56:07;16.43;;;10.50;;
21101;SDS011;10709;49.006;12.100;2024-03-08T11:58:41;16.87;;;10.63;;
21101;SDS011;10709;49.006;12.100;2024-03-08T12:01:09;17.50;;;11.70;;
21101;SDS011;10709;49.006;12.100;2024-03-08T12:03:43;16.20;;;11.33;;
21101;SDS011;10709;49.006;12.100;2024-03-08T12:06:10;18.37;;;10.70;;
21101;SDS011;10709;49.006;12.100;2024-03-08T12:08:37;16.27;;;10.87;;
21101;SDS011;10709;49.006;12.100;2024-03-08T12:11:04;16.10;;;10.50;;
21101;SDS011;10709;49.006;12.100;2024-03-08T12:13:32;16.97;;;11.43;;
21101;SDS011;10709;49.006;12.100;2024-03-08T12:16:03;17.00;;;10.90;;
21101;SDS011;10709;49.006;12.100;2024-03-08T12:18:34;17.60;;;10.40;;
21101;SDS011;10709;49.006;12.100;2024-03-08T12:21:04;16.03;;;10.97;;
21101;SDS011;10709;49.006;12.100;2024-03-08T12:23:37;15.80;;;10.93;;
21101;SDS011;10709;49.006;12.100;2024-03-08T12:26:14;15.17;;;9.47;;
21101;SDS011;10709;49.006;12.100;2024-03-08T12:28:43;13.37;;;8.90;;
21101;SDS011;10709;49.006;12.100;2024-03-08T12:31:14;12.97;;;8.60;;
21101;SDS011;10709;49.006;12.100;2024-03-08T12:33:53;12.60;;;8.83;;
21101;SDS011;10709;49.006;12.100;2024-03-08T12:36:23;11.17;;;8.43;;
21101;SDS011;10709;49.006;12.100;2024-03-08T12:38:49;11.53;;;8.03;;
21101;SDS011;10709;49.006;12.100;2024-03-08T12:41:19;10.20;;;7.50;;
21101;SDS011;10709;49.006;12.100;2024-03-08T12:43:47;10.83;;;8.20;;
21101;SDS011;10709;49.006;12.100;2024-03-08T12:48:42;9.90;;;7.33;;
21101;SDS011;10709;49.006;12.100;2024-03-08T12:51:13;11.93;;;8.00;;
21101;SDS011;10709;49.006;12.100;2024-03-08T12:53:42;13.37;;;8.03;;
21101;SDS011;10709;49.006;12.100;2024-03-08T12:56:39;11.43;;;8.03;;
21101;SDS011;10709;49.006;12.100;2024-03-08T12:59:07;10.30;;;7.60;;
21101;SDS011;10709;49.006;12.100;2024-03-08T13:01:34;13.47;;;8.00;;
21101;SDS011;10709;49.006;12.100;2024-03-08T13:04:04;12.53;;;7.77;;
21101;SDS011;10709;49.006;12.100;2024-03-08T13:06:32;11.73;;;7.93;;
21101;SDS011;10709;49.006;12.100;2024-03-08T13:08:59;12.07;;;8.83;;
21101;SDS011;10709;49.006;12.100;2024-03-08T13:11:32;13.17;;;8.50;;
21101;SDS011;10709;49.006;12.100;2024-03-08T13:14:04;11.83;;;7.83;;
21101;SDS011;10709;49.006;12.100;2024-03-08T13:16:31;10.70;;;7.47;;
21101;SDS011;10709;49.006;12.100;2024-03-08T13:18:59;12.03;;;7.80;;
21101;SDS011;10709;49.006;12.100;2024-03-08T13:21:26;11.53;;;7.90;;
21101;SDS011;10709;49.006;12.100;2024-03-08T13:23:56;12.77;;;8.50;;
21101;SDS011;10709;49.006;12.100;2024-03-08T13:26:25;12.60;;;8.40;;
21101;SDS011;10709;49.006;12.100;2024-03-08T13:28:56;12.40;;;8.27;;
21101;SDS011;10709;49.006;12.100;2024-03-08T13:31:24;11.03;;;8.30;;
21101;SDS011;10709;49.006;12.100;2024-03-08T13:33:52;10.33;;;7.80;;
21101;SDS011;10709;49.006;12.100;2024-03-08T13:36:24;12.07;;;7.73;;
21101;SDS011;10709;49.006;12.100;2024-03-08T13:38:55;11.43;;;7.70;;
21101;SDS011;10709;49.006;12.100;2024-03-08T13:41:26;12.80;;;7.73;;
21101;SDS011;10709;49.006;12.100;2024-03-08T13:43:58;10.83;;;7.40;;
21101;SDS011;10709;49.006;12.100;2024-03-08T13:46:24;13.13;;;8.33;;
21101;SDS011;10709;49.006;12.100;2024-03-08T13:48:53;11.43;;;8.23;;
21101;SDS011;10709;49.006;12.100;2024-03-08T13:51:20;11.30;;;8.07;;
21101;SDS011;10709;49.006;12.100;2024-03-08T13:53:51;12.67;;;7.93;;
21101;SDS011;10709;49.006;12.100;2024-03-08T13:56:17;10.53;;;7.83;;
21101;SDS011;10709;49.006;12.100;2024-03-08T13:58:44;10.93;;;7.90;;
21101;SDS011;10709;49.006;12.100;2024-03-08T14:01:11;11.00;;;7.63;;
21101;SDS011;10709;49.006;12.100;2024-03-08T14:03:39;11.07;;;7.97;;
21101;SDS011;10709;49.006;12.100;2024-03-08T14:06:08;10.70;;;7.70;;
21101;SDS011;10709;49.006;12.100;2024-03-08T14:08:36;10.07;;;7.13;;
21101;SDS011;10709;49.006;12.100;2024-03-08T14:11:06;10.83;;;7.23;;
21101;SDS011;10709;49.006;12.100;2024-03-08T14:13:42;10.17;;;7.13;;
21101;SDS011;10709;49.006;12.100;2024-03-08T14:16:12;9.33;;;6.80;;
21101;SDS011;10709;49.006;12.100;2024-03-08T14:18:39;11.60;;;7.43;;
21101;SDS011;10709;49.006;12.100;2024-03-08T14:21:06;9.13;;;7.00;;
21101;SDS011;10709;49.006;12.100;2024-03-08T14:23:35;10.07;;;7.23;;
21101;SDS011;10709;49.006;12.100;2024-03-08T14:26:05;8.10;;;6.50;;
21101;SDS011;10709;49.006;12.100;2024-03-08T14:28:34;8.63;;;6.60;;
21101;SDS011;10709;49.006;12.100;2024-03-08T14:31:03;8.57;;;6.87;;
21101;SDS011;10709;49.006;12.100;2024-03-08T14:33:32;10.73;;;7.10;;
21101;SDS011;10709;49.006;12.100;2024-03-08T14:36:01;8.40;;;6.53;;
21101;SDS011;10709;49.006;12.100;2024-03-08T14:38:28;9.40;;;6.17;;